sensor_id;sensor_type;location;lat;lon;timestamp;temperature;humidity
39951;DHT22;25629;51.444;-2.606;2023-03-16T00:01:58;10.70;99.90
39951;DHT22;25629;51.444;-2.606;2023-03-16T00:04:24;10.70;99.90
39951;DHT22;25629;51.444;-2.606;2023-03-16T00:06:50;10.70;99.90
39951;DHT22;25629;51.444;-2.606;2023-03-16T00:09:15;10.70;99.90
39951;DHT22;25629;51.444;-2.606;2023-03-16T00:11:41;10.70;99.90
39951;DHT22;25629;51.444;-2.606;2023-03-16T00:14:07;10.80;99.90
39951;DHT22;25629;51.444;-2.606;2023-03-16T00:16:33;10.80;99.90
39951;DHT22;25629;51.444;-2.606;2023-03-16T00:19:00;10.70;99.90
39951;DHT22;25629;51.444;-2.606;2023-03-16T00:21:28;10.80;99.90
39951;DHT22;25629;51.444;-2.606;2023-03-16T00:23:59;10.80;99.90
39951;DHT22;25629;51.444;-2.606;2023-03-16T00:26:27;10.80;99.90
39951;DHT22;25629;51.444;-2.606;2023-03-16T00:28:53;10.80;99.90
39951;DHT22;25629;51.444;-2.606;2023-03-16T00:31:19;10.80;99.90
39951;DHT22;25629;51.444;-2.606;2023-03-16T00:33:45;10.80;99.90
39951;DHT22;25629;51.444;-2.606;2023-03-16T00:36:11;10.80;99.90
39951;DHT22;25629;51.444;-2.606;2023-03-16T00:38:38;10.80;99.90
39951;DHT22;25629;51.444;-2.606;2023-03-16T00:41:06;10.70;99.90
39951;DHT22;25629;51.444;-2.606;2023-03-16T00:43:35;10.70;99.90
39951;DHT22;25629;51.444;-2.606;2023-03-16T00:46:15;10.70;99.90
39951;DHT22;25629;51.444;-2.606;2023-03-16T00:48:43;10.70;99.90
39951;DHT22;25629;51.444;-2.606;2023-03-16T00:51:11;10.80;99.90
39951;DHT22;25629;51.444;-2.606;2023-03-16T00:53:38;10.70;99.90
39951;DHT22;25629;51.444;-2.606;2023-03-16T00:56:05;10.80;99.90
39951;DHT22;25629;51.444;-2.606;2023-03-16T00:58:32;10.70;99.90
39951;DHT22;25629;51.444;-2.606;2023-03-16T01:01:02;10.70;99.90
39951;DHT22;25629;51.444;-2.606;2023-03-16T01:03:28;10.80;99.90
39951;DHT22;25629;51.444;-2.606;2023-03-16T01:05:54;10.80;99.90
39951;DHT22;25629;51.444;-2.606;2023-03-16T01:08:24;10.80;99.90
39951;DHT22;25629;51.444;-2.606;2023-03-16T01:10:53;10.80;99.90
39951;DHT22;25629;51.444;-2.606;2023-03-16T01:13:19;10.80;99.90
39951;DHT22;25629;51.444;-2.606;2023-03-16T01:15:46;10.80;99.90
39951;DHT22;25629;51.444;-2.606;2023-03-16T01:18:14;10.80;99.90
39951;DHT22;25629;51.444;-2.606;2023-03-16T01:20:40;10.80;99.90
39951;DHT22;25629;51.444;-2.606;2023-03-16T01:23:07;10.80;99.90
39951;DHT22;25629;51.444;-2.606;2023-03-16T01:25:33;10.80;99.90
39951;DHT22;25629;51.444;-2.606;2023-03-16T01:27:59;10.90;99.90
39951;DHT22;25629;51.444;-2.606;2023-03-16T01:30:26;10.90;99.90
39951;DHT22;25629;51.444;-2.606;2023-03-16T01:32:52;10.90;99.90
39951;DHT22;25629;51.444;-2.606;2023-03-16T01:35:18;10.90;99.90
39951;DHT22;25629;51.444;-2.606;2023-03-16T01:37:46;10.90;99.90
39951;DHT22;25629;51.444;-2.606;2023-03-16T01:40:12;10.90;99.90
39951;DHT22;25629;51.444;-2.606;2023-03-16T01:43:00;10.90;99.90
39951;DHT22;25629;51.444;-2.606;2023-03-16T01:45:57;10.90;99.90
39951;DHT22;25629;51.444;-2.606;2023-03-16T01:48:48;10.90;99.90
39951;DHT22;25629;51.444;-2.606;2023-03-16T01:56:57;10.90;99.90
39951;DHT22;25629;51.444;-2.606;2023-03-16T01:59:29;10.90;99.90
39951;DHT22;25629;51.444;-2.606;2023-03-16T02:01:56;10.90;99.90
39951;DHT22;25629;51.444;-2.606;2023-03-16T02:07:16;10.90;99.90
39951;DHT22;25629;51.444;-2.606;2023-03-16T02:09:45;10.90;99.90
39951;DHT22;25629;51.444;-2.606;2023-03-16T02:12:14;10.90;99.90
39951;DHT22;25629;51.444;-2.606;2023-03-16T02:14:47;10.90;99.90
39951;DHT22;25629;51.444;-2.606;2023-03-16T02:17:14;11.00;99.90
39951;DHT22;25629;51.444;-2.606;2023-03-16T02:19:50;11.00;99.90
39951;DHT22;25629;51.444;-2.606;2023-03-16T02:22:18;11.00;99.90
39951;DHT22;25629;51.444;-2.606;2023-03-16T02:24:45;11.00;99.90
39951;DHT22;25629;51.444;-2.606;2023-03-16T02:27:18;11.00;99.90
39951;DHT22;25629;51.444;-2.606;2023-03-16T02:32:17;11.00;99.90
39951;DHT22;25629;51.444;-2.606;2023-03-16T02:34:44;11.00;99.90
39951;DHT22;25629;51.444;-2.606;2023-03-16T02:37:10;11.00;99.90
39951;DHT22;25629;51.444;-2.606;2023-03-16T02:39:36;11.00;99.90
39951;DHT22;25629;51.444;-2.606;2023-03-16T02:42:02;11.00;99.90
39951;DHT22;25629;51.444;-2.606;2023-03-16T02:44:34;11.00;99.90
39951;DHT22;25629;51.444;-2.606;2023-03-16T02:47:12;11.00;99.90
39951;DHT22;25629;51.444;-2.606;2023-03-16T02:49:43;11.00;99.90
39951;DHT22;25629;51.444;-2.606;2023-03-16T02:52:10;11.00;99.90
39951;DHT22;25629;51.444;-2.606;2023-03-16T02:54:36;11.00;99.90
39951;DHT22;25629;51.444;-2.606;2023-03-16T02:57:01;11.00;99.90
39951;DHT22;25629;51.444;-2.606;2023-03-16T02:59:27;11.10;99.90
39951;DHT22;25629;51.444;-2.606;2023-03-16T03:01:53;11.10;99.90
39951;DHT22;25629;51.444;-2.606;2023-03-16T03:04:19;11.00;99.90
39951;DHT22;25629;51.444;-2.606;2023-03-16T03:06:48;11.00;99.90
39951;DHT22;25629;51.444;-2.606;2023-03-16T03:09:13;11.00;99.90
39951;DHT22;25629;51.444;-2.606;2023-03-16T03:11:39;10.90;99.90
39951;DHT22;25629;51.444;-2.606;2023-03-16T03:14:05;10.80;99.90
39951;DHT22;25629;51.444;-2.606;2023-03-16T03:16:31;10.70;99.90
39951;DHT22;25629;51.444;-2.606;2023-03-16T03:18:58;10.70;99.90
39951;DHT22;25629;51.444;-2.606;2023-03-16T03:21:24;10.70;99.90
39951;DHT22;25629;51.444;-2.606;2023-03-16T03:23:50;10.60;99.90
39951;DHT22;25629;51.444;-2.606;2023-03-16T03:26:16;10.70;99.90
39951;DHT22;25629;51.444;-2.606;2023-03-16T03:28:43;10.70;99.90
39951;DHT22;25629;51.444;-2.606;2023-03-16T03:31:17;10.60;99.90
39951;DHT22;25629;51.444;-2.606;2023-03-16T03:33:43;10.60;99.90
39951;DHT22;25629;51.444;-2.606;2023-03-16T03:36:09;10.60;99.90
39951;DHT22;25629;51.444;-2.606;2023-03-16T03:38:36;10.60;99.90
39951;DHT22;25629;51.444;-2.606;2023-03-16T03:41:03;10.60;99.90
39951;DHT22;25629;51.444;-2.606;2023-03-16T03:43:28;10.50;99.90
39951;DHT22;25629;51.444;-2.606;2023-03-16T03:45:59;10.50;99.90
39951;DHT22;25629;51.444;-2.606;2023-03-16T03:48:25;10.60;99.90
39951;DHT22;25629;51.444;-2.606;2023-03-16T03:50:52;10.60;99.90
39951;DHT22;25629;51.444;-2.606;2023-03-16T03:53:18;10.60;99.90
39951;DHT22;25629;51.444;-2.606;2023-03-16T03:55:44;10.60;99.90
39951;DHT22;25629;51.444;-2.606;2023-03-16T03:58:10;10.60;99.90
39951;DHT22;25629;51.444;-2.606;2023-03-16T04:00:37;10.70;99.90
39951;DHT22;25629;51.444;-2.606;2023-03-16T04:03:03;10.60;99.90
39951;DHT22;25629;51.444;-2.606;2023-03-16T04:05:29;10.70;99.90
39951;DHT22;25629;51.444;-2.606;2023-03-16T04:07:55;10.70;99.90
39951;DHT22;25629;51.444;-2.606;2023-03-16T04:10:26;10.60;99.90
39951;DHT22;25629;51.444;-2.606;2023-03-16T04:12:52;10.60;99.90
39951;DHT22;25629;51.444;-2.606;2023-03-16T04:15:19;10.70;99.90
39951;DHT22;25629;51.444;-2.606;2023-03-16T04:17:47;10.60;99.90
39951;DHT22;25629;51.444;-2.606;2023-03-16T04:20:14;10.60;99.90
39951;DHT22;25629;51.444;-2.606;2023-03-16T04:22:44;10.60;99.90
39951;DHT22;25629;51.444;-2.606;2023-03-16T04:25:12;10.60;99.90
39951;DHT22;25629;51.444;-2.606;2023-03-16T04:27:39;10.60;99.90
39951;DHT22;25629;51.444;-2.606;2023-03-16T04:30:06;10.60;99.90
39951;DHT22;25629;51.444;-2.606;2023-03-16T04:32:33;10.60;99.90
39951;DHT22;25629;51.444;-2.606;2023-03-16T04:34:58;10.60;99.90
39951;DHT22;25629;51.444;-2.606;2023-03-16T04:37:24;10.70;99.90
39951;DHT22;25629;51.444;-2.606;2023-03-16T04:39:50;10.60;99.90
39951;DHT22;25629;51.444;-2.606;2023-03-16T04:42:16;10.70;99.90
39951;DHT22;25629;51.444;-2.606;2023-03-16T04:44:41;10.70;99.90
39951;DHT22;25629;51.444;-2.606;2023-03-16T04:47:14;10.70;99.90
39951;DHT22;25629;51.444;-2.606;2023-03-16T04:49:40;10.70;99.90
39951;DHT22;25629;51.444;-2.606;2023-03-16T04:52:06;10.70;99.90
39951;DHT22;25629;51.444;-2.606;2023-03-16T04:54:32;10.70;99.90
39951;DHT22;25629;51.444;-2.606;2023-03-16T04:56:58;10.70;99.90
39951;DHT22;25629;51.444;-2.606;2023-03-16T04:59:26;10.70;99.90
39951;DHT22;25629;51.444;-2.606;2023-03-16T05:01:51;10.60;99.90
39951;DHT22;25629;51.444;-2.606;2023-03-16T05:04:18;10.60;99.90
39951;DHT22;25629;51.444;-2.606;2023-03-16T05:06:44;10.70;99.90
39951;DHT22;25629;51.444;-2.606;2023-03-16T05:09:09;10.60;99.90
39951;DHT22;25629;51.444;-2.606;2023-03-16T05:11:35;10.60;99.90
39951;DHT22;25629;51.444;-2.606;2023-03-16T05:14:02;10.60;99.90
39951;DHT22;25629;51.444;-2.606;2023-03-16T05:16:28;10.60;99.90
39951;DHT22;25629;51.444;-2.606;2023-03-16T05:18:57;10.60;99.90
39951;DHT22;25629;51.444;-2.606;2023-03-16T05:21:23;10.60;99.90
39951;DHT22;25629;51.444;-2.606;2023-03-16T05:23:49;10.50;99.90
39951;DHT22;25629;51.444;-2.606;2023-03-16T05:26:14;10.50;99.90
39951;DHT22;25629;51.444;-2.606;2023-03-16T05:28:40;10.50;99.90
39951;DHT22;25629;51.444;-2.606;2023-03-16T05:31:07;10.50;99.90
39951;DHT22;25629;51.444;-2.606;2023-03-16T05:33:33;10.50;99.90
39951;DHT22;25629;51.444;-2.606;2023-03-16T05:35:59;10.50;99.90
39951;DHT22;25629;51.444;-2.606;2023-03-16T05:38:26;10.60;99.90
39951;DHT22;25629;51.444;-2.606;2023-03-16T05:40:52;10.60;99.90
39951;DHT22;25629;51.444;-2.606;2023-03-16T05:43:20;10.60;99.90
39951;DHT22;25629;51.444;-2.606;2023-03-16T05:45:46;10.60;99.90
39951;DHT22;25629;51.444;-2.606;2023-03-16T05:48:13;10.60;99.90
39951;DHT22;25629;51.444;-2.606;2023-03-16T05:50:40;10.60;99.90
39951;DHT22;25629;51.444;-2.606;2023-03-16T05:53:06;10.50;99.90
39951;DHT22;25629;51.444;-2.606;2023-03-16T05:55:33;10.60;99.90
39951;DHT22;25629;51.444;-2.606;2023-03-16T05:57:59;10.60;99.90
39951;DHT22;25629;51.444;-2.606;2023-03-16T06:00:25;10.50;99.90
39951;DHT22;25629;51.444;-2.606;2023-03-16T06:02:52;10.50;99.90
39951;DHT22;25629;51.444;-2.606;2023-03-16T06:05:18;10.60;99.90
39951;DHT22;25629;51.444;-2.606;2023-03-16T06:07:46;10.60;99.90
39951;DHT22;25629;51.444;-2.606;2023-03-16T06:10:13;10.60;99.90
39951;DHT22;25629;51.444;-2.606;2023-03-16T06:12:38;10.60;99.90
39951;DHT22;25629;51.444;-2.606;2023-03-16T06:15:05;10.60;99.90
39951;DHT22;25629;51.444;-2.606;2023-03-16T06:17:33;10.60;99.90
39951;DHT22;25629;51.444;-2.606;2023-03-16T06:19:58;10.60;99.90
39951;DHT22;25629;51.444;-2.606;2023-03-16T06:22:24;10.60;99.90
39951;DHT22;25629;51.444;-2.606;2023-03-16T06:24:50;10.60;99.90
39951;DHT22;25629;51.444;-2.606;2023-03-16T06:27:17;10.60;99.90
39951;DHT22;25629;51.444;-2.606;2023-03-16T06:29:45;10.60;99.90
39951;DHT22;25629;51.444;-2.606;2023-03-16T06:32:12;10.60;99.90
39951;DHT22;25629;51.444;-2.606;2023-03-16T06:34:37;10.60;99.90
39951;DHT22;25629;51.444;-2.606;2023-03-16T06:37:04;10.60;99.90
39951;DHT22;25629;51.444;-2.606;2023-03-16T06:39:29;10.60;99.90
39951;DHT22;25629;51.444;-2.606;2023-03-16T06:41:55;10.60;99.90
39951;DHT22;25629;51.444;-2.606;2023-03-16T06:44:21;10.60;99.90
39951;DHT22;25629;51.444;-2.606;2023-03-16T06:46:47;10.60;99.90
39951;DHT22;25629;51.444;-2.606;2023-03-16T06:49:13;10.60;99.90
39951;DHT22;25629;51.444;-2.606;2023-03-16T06:51:38;10.60;99.90
39951;DHT22;25629;51.444;-2.606;2023-03-16T06:54:04;10.60;99.90
39951;DHT22;25629;51.444;-2.606;2023-03-16T06:56:30;10.60;99.90
39951;DHT22;25629;51.444;-2.606;2023-03-16T06:58:56;10.70;99.90
39951;DHT22;25629;51.444;-2.606;2023-03-16T07:01:22;10.70;99.90
39951;DHT22;25629;51.444;-2.606;2023-03-16T07:03:48;10.70;99.90
39951;DHT22;25629;51.444;-2.606;2023-03-16T07:06:14;10.70;99.90
39951;DHT22;25629;51.444;-2.606;2023-03-16T07:08:39;10.70;99.90
39951;DHT22;25629;51.444;-2.606;2023-03-16T07:11:07;10.70;99.90
39951;DHT22;25629;51.444;-2.606;2023-03-16T07:13:33;10.60;99.90
39951;DHT22;25629;51.444;-2.606;2023-03-16T07:16:00;10.60;99.90
39951;DHT22;25629;51.444;-2.606;2023-03-16T07:18:26;10.70;99.90
39951;DHT22;25629;51.444;-2.606;2023-03-16T07:20:53;10.60;99.90
39951;DHT22;25629;51.444;-2.606;2023-03-16T07:23:19;10.60;99.90
39951;DHT22;25629;51.444;-2.606;2023-03-16T07:25:45;10.50;99.90
39951;DHT22;25629;51.444;-2.606;2023-03-16T07:28:10;10.50;99.90
39951;DHT22;25629;51.444;-2.606;2023-03-16T07:30:36;10.60;99.90
39951;DHT22;25629;51.444;-2.606;2023-03-16T07:33:02;10.60;99.90
39951;DHT22;25629;51.444;-2.606;2023-03-16T07:35:29;10.60;99.90
39951;DHT22;25629;51.444;-2.606;2023-03-16T07:37:55;10.70;99.90
39951;DHT22;25629;51.444;-2.606;2023-03-16T07:40:21;10.70;99.90
39951;DHT22;25629;51.444;-2.606;2023-03-16T07:42:47;10.70;99.90
39951;DHT22;25629;51.444;-2.606;2023-03-16T07:45:13;10.60;99.90
39951;DHT22;25629;51.444;-2.606;2023-03-16T07:47:39;10.60;99.90
39951;DHT22;25629;51.444;-2.606;2023-03-16T07:50:06;10.70;99.90
39951;DHT22;25629;51.444;-2.606;2023-03-16T07:52:33;10.70;99.90
39951;DHT22;25629;51.444;-2.606;2023-03-16T07:54:59;10.80;99.90
39951;DHT22;25629;51.444;-2.606;2023-03-16T07:57:24;10.90;99.90
39951;DHT22;25629;51.444;-2.606;2023-03-16T07:59:50;10.90;99.90
39951;DHT22;25629;51.444;-2.606;2023-03-16T08:02:18;10.90;99.90
39951;DHT22;25629;51.444;-2.606;2023-03-16T08:04:44;10.90;99.90
39951;DHT22;25629;51.444;-2.606;2023-03-16T08:07:11;10.90;99.90
39951;DHT22;25629;51.444;-2.606;2023-03-16T08:09:37;11.00;99.90
39951;DHT22;25629;51.444;-2.606;2023-03-16T08:12:04;11.00;99.90
39951;DHT22;25629;51.444;-2.606;2023-03-16T08:14:31;10.90;99.90
39951;DHT22;25629;51.444;-2.606;2023-03-16T08:17:05;10.90;99.90
39951;DHT22;25629;51.444;-2.606;2023-03-16T08:19:32;10.90;99.90
39951;DHT22;25629;51.444;-2.606;2023-03-16T08:21:58;10.90;99.90
39951;DHT22;25629;51.444;-2.606;2023-03-16T08:24:26;10.90;99.90
39951;DHT22;25629;51.444;-2.606;2023-03-16T08:26:52;11.00;99.90
39951;DHT22;25629;51.444;-2.606;2023-03-16T08:29:18;11.00;99.90
39951;DHT22;25629;51.444;-2.606;2023-03-16T08:31:44;11.00;99.90
39951;DHT22;25629;51.444;-2.606;2023-03-16T08:34:11;11.00;99.90
39951;DHT22;25629;51.444;-2.606;2023-03-16T08:36:38;11.00;99.90
39951;DHT22;25629;51.444;-2.606;2023-03-16T08:39:04;11.00;99.90
39951;DHT22;25629;51.444;-2.606;2023-03-16T08:41:32;11.00;99.90
39951;DHT22;25629;51.444;-2.606;2023-03-16T08:43:59;11.10;99.90
39951;DHT22;25629;51.444;-2.606;2023-03-16T08:46:25;11.10;99.90
39951;DHT22;25629;51.444;-2.606;2023-03-16T08:48:50;11.20;99.90
39951;DHT22;25629;51.444;-2.606;2023-03-16T08:51:17;11.20;99.90
39951;DHT22;25629;51.444;-2.606;2023-03-16T08:53:43;11.20;99.90
39951;DHT22;25629;51.444;-2.606;2023-03-16T08:56:11;11.20;99.90
39951;DHT22;25629;51.444;-2.606;2023-03-16T08:58:37;11.20;99.90
39951;DHT22;25629;51.444;-2.606;2023-03-16T09:01:09;11.20;99.90
39951;DHT22;25629;51.444;-2.606;2023-03-16T09:03:34;11.10;99.90
39951;DHT22;25629;51.444;-2.606;2023-03-16T09:06:08;11.20;99.90
39951;DHT22;25629;51.444;-2.606;2023-03-16T09:08:35;11.20;99.90
39951;DHT22;25629;51.444;-2.606;2023-03-16T09:11:02;11.20;99.90
39951;DHT22;25629;51.444;-2.606;2023-03-16T09:13:30;11.20;99.90
39951;DHT22;25629;51.444;-2.606;2023-03-16T09:15:56;11.10;99.90
39951;DHT22;25629;51.444;-2.606;2023-03-16T09:18:23;11.10;99.90
39951;DHT22;25629;51.444;-2.606;2023-03-16T09:20:51;11.20;99.90
39951;DHT22;25629;51.444;-2.606;2023-03-16T09:23:17;11.20;99.90
39951;DHT22;25629;51.444;-2.606;2023-03-16T09:25:44;11.30;99.90
39951;DHT22;25629;51.444;-2.606;2023-03-16T09:28:09;11.20;99.90
39951;DHT22;25629;51.444;-2.606;2023-03-16T09:30:35;11.30;99.90
39951;DHT22;25629;51.444;-2.606;2023-03-16T09:33:01;11.30;99.90
39951;DHT22;25629;51.444;-2.606;2023-03-16T09:35:28;11.40;99.90
39951;DHT22;25629;51.444;-2.606;2023-03-16T09:37:54;11.40;99.90
39951;DHT22;25629;51.444;-2.606;2023-03-16T09:40:28;11.40;99.90
39951;DHT22;25629;51.444;-2.606;2023-03-16T09:48:25;11.70;99.90
39951;DHT22;25629;51.444;-2.606;2023-03-16T09:50:53;11.80;99.90
39951;DHT22;25629;51.444;-2.606;2023-03-16T09:53:30;11.80;99.90
39951;DHT22;25629;51.444;-2.606;2023-03-16T09:56:05;11.90;99.90
39951;DHT22;25629;51.444;-2.606;2023-03-16T09:58:33;11.90;99.90
39951;DHT22;25629;51.444;-2.606;2023-03-16T10:04:06;12.00;99.90
39951;DHT22;25629;51.444;-2.606;2023-03-16T10:06:51;12.10;99.90
39951;DHT22;25629;51.444;-2.606;2023-03-16T10:09:56;12.20;99.90
39951;DHT22;25629;51.444;-2.606;2023-03-16T10:12:25;12.20;99.90
39951;DHT22;25629;51.444;-2.606;2023-03-16T10:15:02;12.30;99.90
39951;DHT22;25629;51.444;-2.606;2023-03-16T10:17:37;12.30;99.90
39951;DHT22;25629;51.444;-2.606;2023-03-16T10:20:10;12.30;99.90
39951;DHT22;25629;51.444;-2.606;2023-03-16T10:22:42;12.30;99.90
39951;DHT22;25629;51.444;-2.606;2023-03-16T10:25:17;12.20;99.90
39951;DHT22;25629;51.444;-2.606;2023-03-16T10:27:45;12.10;99.90
39951;DHT22;25629;51.444;-2.606;2023-03-16T10:32:44;12.10;99.90
39951;DHT22;25629;51.444;-2.606;2023-03-16T10:37:54;12.20;99.90
39951;DHT22;25629;51.444;-2.606;2023-03-16T10:40:21;12.20;99.90
39951;DHT22;25629;51.444;-2.606;2023-03-16T10:42:47;12.20;99.90
39951;DHT22;25629;51.444;-2.606;2023-03-16T10:45:28;12.10;99.90
39951;DHT22;25629;51.444;-2.606;2023-03-16T10:48:10;12.20;99.90
39951;DHT22;25629;51.444;-2.606;2023-03-16T10:50:38;12.30;99.90
39951;DHT22;25629;51.444;-2.606;2023-03-16T10:53:15;12.30;99.90
39951;DHT22;25629;51.444;-2.606;2023-03-16T10:55:43;12.40;99.90
39951;DHT22;25629;51.444;-2.606;2023-03-16T10:58:10;12.60;99.90
39951;DHT22;25629;51.444;-2.606;2023-03-16T11:00:46;12.70;99.90
39951;DHT22;25629;51.444;-2.606;2023-03-16T11:03:20;12.80;99.90
39951;DHT22;25629;51.444;-2.606;2023-03-16T11:06:00;13.00;99.90
39951;DHT22;25629;51.444;-2.606;2023-03-16T11:08:31;13.10;99.90
39951;DHT22;25629;51.444;-2.606;2023-03-16T11:10:59;13.20;99.90
39951;DHT22;25629;51.444;-2.606;2023-03-16T11:13:34;13.20;99.40
39951;DHT22;25629;51.444;-2.606;2023-03-16T11:18:49;13.20;99.90
39951;DHT22;25629;51.444;-2.606;2023-03-16T11:21:32;13.20;99.70
39951;DHT22;25629;51.444;-2.606;2023-03-16T11:24:00;13.30;99.90
39951;DHT22;25629;51.444;-2.606;2023-03-16T11:26:34;13.30;96.30
39951;DHT22;25629;51.444;-2.606;2023-03-16T11:29:06;13.40;96.00
39951;DHT22;25629;51.444;-2.606;2023-03-16T11:31:50;13.50;95.80
39951;DHT22;25629;51.444;-2.606;2023-03-16T11:34:27;13.50;99.50
39951;DHT22;25629;51.444;-2.606;2023-03-16T11:39:57;13.40;95.50
39951;DHT22;25629;51.444;-2.606;2023-03-16T11:42:34;13.20;98.00
39951;DHT22;25629;51.444;-2.606;2023-03-16T11:48:02;13.30;95.50
39951;DHT22;25629;51.444;-2.606;2023-03-16T11:50:35;13.50;94.80
39951;DHT22;25629;51.444;-2.606;2023-03-16T11:53:31;13.50;95.10
39951;DHT22;25629;51.444;-2.606;2023-03-16T11:59:19;13.10;94.10
39951;DHT22;25629;51.444;-2.606;2023-03-16T12:07:57;12.70;99.90
39951;DHT22;25629;51.444;-2.606;2023-03-16T12:10:33;12.60;99.90
39951;DHT22;25629;51.444;-2.606;2023-03-16T12:13:41;12.50;99.90
39951;DHT22;25629;51.444;-2.606;2023-03-16T12:16:16;12.50;99.90
39951;DHT22;25629;51.444;-2.606;2023-03-16T12:18:50;12.50;99.90
39951;DHT22;25629;51.444;-2.606;2023-03-16T12:21:26;12.50;99.90
39951;DHT22;25629;51.444;-2.606;2023-03-16T12:23:55;12.50;99.90
39951;DHT22;25629;51.444;-2.606;2023-03-16T12:26:25;12.40;99.90
39951;DHT22;25629;51.444;-2.606;2023-03-16T12:28:55;12.50;99.90
39951;DHT22;25629;51.444;-2.606;2023-03-16T12:40:19;12.10;99.90
39951;DHT22;25629;51.444;-2.606;2023-03-16T12:45:41;11.90;99.90
39951;DHT22;25629;51.444;-2.606;2023-03-16T12:48:26;11.80;99.90
39951;DHT22;25629;51.444;-2.606;2023-03-16T12:50:57;11.70;99.90
39951;DHT22;25629;51.444;-2.606;2023-03-16T12:53:44;11.70;99.90
39951;DHT22;25629;51.444;-2.606;2023-03-16T12:56:16;11.70;99.90
39951;DHT22;25629;51.444;-2.606;2023-03-16T12:58:46;11.70;99.90
39951;DHT22;25629;51.444;-2.606;2023-03-16T13:01:14;11.70;99.90
39951;DHT22;25629;51.444;-2.606;2023-03-16T13:03:42;11.70;99.90
39951;DHT22;25629;51.444;-2.606;2023-03-16T13:06:20;11.80;99.90
39951;DHT22;25629;51.444;-2.606;2023-03-16T13:08:50;11.80;99.90
39951;DHT22;25629;51.444;-2.606;2023-03-16T13:11:17;11.80;99.90
39951;DHT22;25629;51.444;-2.606;2023-03-16T13:16:28;11.80;99.90
39951;DHT22;25629;51.444;-2.606;2023-03-16T13:18:55;11.80;99.90
39951;DHT22;25629;51.444;-2.606;2023-03-16T13:26:48;11.90;99.90
39951;DHT22;25629;51.444;-2.606;2023-03-16T13:29:26;11.80;99.90
39951;DHT22;25629;51.444;-2.606;2023-03-16T13:31:54;11.90;99.90
39951;DHT22;25629;51.444;-2.606;2023-03-16T13:34:25;11.90;99.90
39951;DHT22;25629;51.444;-2.606;2023-03-16T13:36:54;11.90;99.90
39951;DHT22;25629;51.444;-2.606;2023-03-16T13:39:23;11.90;99.90
39951;DHT22;25629;51.444;-2.606;2023-03-16T13:44:22;11.90;99.90
39951;DHT22;25629;51.444;-2.606;2023-03-16T13:46:49;11.90;99.90
39951;DHT22;25629;51.444;-2.606;2023-03-16T13:49:16;11.80;99.90
39951;DHT22;25629;51.444;-2.606;2023-03-16T13:51:43;11.80;99.90
39951;DHT22;25629;51.444;-2.606;2023-03-16T13:54:30;11.80;99.90
39951;DHT22;25629;51.444;-2.606;2023-03-16T13:56:58;11.80;99.90
39951;DHT22;25629;51.444;-2.606;2023-03-16T13:59:25;11.80;99.90
39951;DHT22;25629;51.444;-2.606;2023-03-16T14:01:55;11.80;99.90
39951;DHT22;25629;51.444;-2.606;2023-03-16T14:04:27;11.90;99.90
39951;DHT22;25629;51.444;-2.606;2023-03-16T14:06:59;11.80;99.90
39951;DHT22;25629;51.444;-2.606;2023-03-16T14:09:37;11.80;99.90
39951;DHT22;25629;51.444;-2.606;2023-03-16T14:12:03;11.80;99.90
39951;DHT22;25629;51.444;-2.606;2023-03-16T14:14:36;12.00;99.90
39951;DHT22;25629;51.444;-2.606;2023-03-16T14:17:18;12.10;99.90
39951;DHT22;25629;51.444;-2.606;2023-03-16T14:19:50;12.20;99.90
39951;DHT22;25629;51.444;-2.606;2023-03-16T14:22:22;12.30;99.90
39951;DHT22;25629;51.444;-2.606;2023-03-16T14:24:55;12.30;99.90
39951;DHT22;25629;51.444;-2.606;2023-03-16T14:30:16;12.20;99.90
39951;DHT22;25629;51.444;-2.606;2023-03-16T14:32:55;12.20;99.90
39951;DHT22;25629;51.444;-2.606;2023-03-16T14:35:23;12.10;99.90
39951;DHT22;25629;51.444;-2.606;2023-03-16T14:37:49;12.10;99.90
39951;DHT22;25629;51.444;-2.606;2023-03-16T14:40:29;12.10;99.90
39951;DHT22;25629;51.444;-2.606;2023-03-16T14:42:58;12.10;99.90
39951;DHT22;25629;51.444;-2.606;2023-03-16T14:45:34;12.10;99.90
39951;DHT22;25629;51.444;-2.606;2023-03-16T14:48:04;12.00;99.90
39951;DHT22;25629;51.444;-2.606;2023-03-16T14:50:30;11.90;99.90
39951;DHT22;25629;51.444;-2.606;2023-03-16T14:52:57;11.90;99.90
39951;DHT22;25629;51.444;-2.606;2023-03-16T14:55:23;11.80;99.90
39951;DHT22;25629;51.444;-2.606;2023-03-16T14:57:49;11.80;99.90
39951;DHT22;25629;51.444;-2.606;2023-03-16T15:00:19;11.70;99.90
39951;DHT22;25629;51.444;-2.606;2023-03-16T15:02:59;11.70;99.90
39951;DHT22;25629;51.444;-2.606;2023-03-16T15:05:34;11.70;99.90
39951;DHT22;25629;51.444;-2.606;2023-03-16T15:08:02;11.70;99.90
39951;DHT22;25629;51.444;-2.606;2023-03-16T15:10:31;11.70;99.90
39951;DHT22;25629;51.444;-2.606;2023-03-16T15:12:59;11.70;99.90
39951;DHT22;25629;51.444;-2.606;2023-03-16T15:15:31;11.70;99.90
39951;DHT22;25629;51.444;-2.606;2023-03-16T15:17:57;11.70;99.90
39951;DHT22;25629;51.444;-2.606;2023-03-16T15:20:33;11.80;99.90
39951;DHT22;25629;51.444;-2.606;2023-03-16T15:23:00;11.80;99.90
39951;DHT22;25629;51.444;-2.606;2023-03-16T15:28:02;11.90;99.90
39951;DHT22;25629;51.444;-2.606;2023-03-16T15:30:34;12.00;99.90
39951;DHT22;25629;51.444;-2.606;2023-03-16T15:32:59;12.00;99.90
39951;DHT22;25629;51.444;-2.606;2023-03-16T15:35:25;12.00;99.90
39951;DHT22;25629;51.444;-2.606;2023-03-16T15:37:51;12.00;99.90
39951;DHT22;25629;51.444;-2.606;2023-03-16T15:40:23;12.10;99.90
39951;DHT22;25629;51.444;-2.606;2023-03-16T15:42:51;12.20;99.90
39951;DHT22;25629;51.444;-2.606;2023-03-16T15:45:19;12.20;99.90
39951;DHT22;25629;51.444;-2.606;2023-03-16T15:47:50;12.10;99.90
39951;DHT22;25629;51.444;-2.606;2023-03-16T15:50:18;12.10;99.90
39951;DHT22;25629;51.444;-2.606;2023-03-16T15:52:48;12.00;99.90
39951;DHT22;25629;51.444;-2.606;2023-03-16T15:55:21;12.00;99.90
39951;DHT22;25629;51.444;-2.606;2023-03-16T15:57:57;12.00;99.90
39951;DHT22;25629;51.444;-2.606;2023-03-16T16:02:50;11.90;99.90
39951;DHT22;25629;51.444;-2.606;2023-03-16T16:05:15;11.80;99.90
39951;DHT22;25629;51.444;-2.606;2023-03-16T16:07:41;11.80;99.90
39951;DHT22;25629;51.444;-2.606;2023-03-16T16:10:10;11.90;99.90
39951;DHT22;25629;51.444;-2.606;2023-03-16T16:12:36;11.90;99.90
39951;DHT22;25629;51.444;-2.606;2023-03-16T16:15:02;11.80;99.90
39951;DHT22;25629;51.444;-2.606;2023-03-16T16:17:28;11.80;99.90
39951;DHT22;25629;51.444;-2.606;2023-03-16T16:19:54;11.80;99.90
39951;DHT22;25629;51.444;-2.606;2023-03-16T16:22:20;11.80;99.90
39951;DHT22;25629;51.444;-2.606;2023-03-16T16:24:46;11.70;99.90
39951;DHT22;25629;51.444;-2.606;2023-03-16T16:27:12;11.70;99.90
39951;DHT22;25629;51.444;-2.606;2023-03-16T16:29:38;11.70;99.90
39951;DHT22;25629;51.444;-2.606;2023-03-16T16:32:15;11.70;99.90
39951;DHT22;25629;51.444;-2.606;2023-03-16T16:34:45;11.70;99.90
39951;DHT22;25629;51.444;-2.606;2023-03-16T16:37:10;11.70;99.90
39951;DHT22;25629;51.444;-2.606;2023-03-16T16:39:36;11.70;99.90